Flight Track Log - Related Links

Times and Time Zones

All times are in EDT time to prevent confusion due to time zone crossing. See the JZA7927 flight status page for this flight to view local times or setup timezone preferences in your user account.

Time Position Orientation Groundspeed Altitude Reporting Facility
EDT Latitude Longitude Course Direction KTS MPH feet Rate Location/Type
Fri 06:14:04 AM 39.2000 -76.6667 335° Northwest 129 148 1,000  Level Potomac TRACON
Fri 06:14:58 AM 39.2333 -76.6833 339° North 146 168 2,400 1,611 Climbing Potomac TRACON
Fri 06:15:52 AM 39.2500 -76.7167 303° West 145 167 3,900 1,684 Climbing Potomac TRACON
Fri 06:16:52 AM 39.2667 -76.7667 293° West 137 158 5,600 1,684 Climbing Potomac TRACON
Fri 06:17:00 AM 39.4318 -76.8253 322° Northwest  Level Estimated
Fri 06:17:46 AM 39.2833 -76.8167 293° West 146 168 7,100  Level Potomac TRACON
Fri 06:18:00 AM 39.4959 -76.8647 346° North  Level Estimated
Fri 06:18:52 AM 39.2833 -76.8667 270° West 153 176 8,700  Level Potomac TRACON
Fri 06:19:00 AM 39.5600 -76.9042 335° Northwest  Level Estimated
Fri 06:19:46 AM 39.3000 -76.9167 293° West 154 177 9,800  Level Potomac TRACON
Fri 06:20:40 AM 39.3333 -76.9500 322° Northwest 185 213 10,600 1,000 Climbing Potomac TRACON
Fri 06:21:40 AM 39.3667 -77.0000 311° West 188 216 11,700 896 Climbing Potomac TRACON
Fri 06:24:01 AM 39.4453 -77.1342 307° West 197 227 13,600 743 Climbing Washington Center
Fri 06:25:02 AM 39.4781 -77.1858 309° West 197 227 14,200 700 Climbing Washington Center
Fri 06:26:01 AM 39.5128 -77.2406 309° West 197 227 15,000 784 Climbing Washington Center
Fri 06:27:35 AM 39.5681 -77.3319 308° West 196 226 16,200 779 Climbing New York Center
Fri 06:28:35 AM 39.6006 -77.3889 307° West 196 226 17,000 700 Climbing New York Center
Fri 06:29:35 AM 39.6353 -77.4378 313° West 196 226 17,600 550 Climbing New York Center
Fri 06:30:35 AM 39.6947 -77.4569 346° North 190 219 18,100 550 Climbing New York Center
Fri 06:31:35 AM 39.7450 -77.4511 North 201 231 18,700 450 Climbing New York Center
Fri 06:32:35 AM 39.8117 -77.4519 359° North 206 237 19,000 150 Climbing New York Center
Fri 06:33:35 AM 39.8700 -77.4522 360° North 220 253 19,000  Level New York Center
Fri 06:34:35 AM 39.9431 -77.4508 North 231 266 19,000  Level New York Center
Fri 06:35:35 AM 40.0036 -77.4514 360° North 238 274 19,000  Level New York Center
Fri 06:36:35 AM 40.0789 -77.4478 North 238 274 19,000  Level New York Center
Fri 06:37:35 AM 40.1414 -77.4483 360° North 238 274 19,000  Level New York Center
Fri 06:38:35 AM 40.2164 -77.4472 North 238 274 19,000  Level New York Center
Fri 06:39:35 AM 40.2769 -77.4450 North 238 274 19,000  Level New York Center
Fri 06:40:35 AM 40.3522 -77.4442 360° North 238 274 19,000  Level New York Center
Fri 06:41:35 AM 40.4125 -77.4444 360° North 238 274 19,000  Level New York Center
Fri 06:42:35 AM 40.4878 -77.4436 360° North 238 274 19,000  Level New York Center
Fri 06:43:35 AM 40.5483 -77.4411 North 238 274 19,000  Level New York Center
Fri 06:44:35 AM 40.6256 -77.4406 360° North 238 274 19,000  Level New York Center
Fri 06:45:36 AM 40.6964 -77.4392 North 245 282 19,000  Level New York Center
Fri 06:46:35 AM 40.7633 -77.4375 North 245 282 19,000  Level New York Center
Fri 06:47:36 AM 40.8319 -77.4358 North 245 282 19,000  Level New York Center
Fri 06:48:35 AM 40.8989 -77.4342 North 245 282 19,000  Level New York Center
Fri 06:49:35 AM 40.9697 -77.4328 North 245 282 19,000  Level New York Center
Fri 06:50:35 AM 41.0339 -77.4419 354° North 239 275 19,000 -293 Level New York Center
Fri 06:53:00 AM 41.1883 -77.5394 335° Northwest 266 306 18,000 -290 Descending Cleveland Center
Fri 06:54:02 AM 41.2539 -77.5792 336° Northwest 263 303 18,000  Level Cleveland Center
Fri 06:55:03 AM 41.3169 -77.6186 335° Northwest 255 293 18,000  Level Cleveland Center
Fri 06:56:04 AM 41.3783 -77.6578 334° Northwest 249 287 18,000  Level Cleveland Center
Fri 06:57:06 AM 41.4528 -77.7044 335° Northwest 249 287 18,000  Level Cleveland Center
Fri 06:58:07 AM 41.5131 -77.7425 335° Northwest 244 281 18,000  Level Cleveland Center
Fri 06:59:08 AM 41.5736 -77.7800 335° Northwest 243 280 18,000  Level Cleveland Center
Fri 07:00:10 AM 41.6347 -77.8175 335° Northwest 243 280 18,000  Level Cleveland Center
Fri 07:01:11 AM 41.6975 -77.8578 334° Northwest 249 287 18,000  Level Cleveland Center
Fri 07:02:12 AM 41.7600 -77.8967 335° Northwest 249 287 18,000  Level Cleveland Center
Fri 07:03:14 AM 41.8336 -77.9442 334° Northwest 248 285 18,000  Level Cleveland Center
Fri 07:04:15 AM 41.8944 -77.9817 335° Northwest 243 280 18,000  Level Cleveland Center
Fri 07:05:17 AM 41.9589 -78.0222 335° Northwest 245 282 18,000  Level Cleveland Center
Fri 07:06:18 AM 42.0214 -78.0606 336° Northwest 245 282 18,000  Level Cleveland Center
Fri 07:07:19 AM 42.0825 -78.1006 334° Northwest 245 282 18,000  Level Cleveland Center
Fri 07:08:21 AM 42.1439 -78.1386 335° Northwest 243 280 18,000  Level Cleveland Center
Fri 07:09:22 AM 42.2047 -78.1767 335° Northwest 242 278 18,000  Level Cleveland Center
Fri 07:10:24 AM 42.2656 -78.2161 334° Northwest 241 277 18,000  Level Cleveland Center
Fri 07:11:25 AM 42.3264 -78.2542 335° Northwest 242 278 18,000  Level Cleveland Center
Fri 07:12:26 AM 42.3867 -78.2931 335° Northwest 241 277 18,000  Level Cleveland Center
Fri 07:13:28 AM 42.4464 -78.3325 334° Northwest 240 276 18,000  Level Cleveland Center
Fri 07:14:29 AM 42.5083 -78.3722 335° Northwest 243 280 18,000  Level Cleveland Center
Fri 07:15:31 AM 42.5811 -78.4186 335° Northwest 242 278 18,000 -146 Level Cleveland Center
Fri 07:16:32 AM 42.6433 -78.4592 334° Northwest 246 283 17,700 -634 Descending Cleveland Center
Fri 07:17:34 AM 42.7114 -78.5036 334° Northwest 265 305 16,700 -976 Descending Cleveland Center
Fri 07:18:35 AM 42.7847 -78.5525 334° Northwest 288 331 15,700 -984 Descending Cleveland Center
Fri 07:19:36 AM 42.8572 -78.5981 335° Northwest 288 331 14,700 -829 Descending Cleveland Center
Fri 07:20:38 AM 42.9283 -78.6478 333° Northwest 286 329 14,000 -341 Descending Cleveland Center
Fri 07:21:39 AM 42.9711 -78.7250 307° West 253 291 14,000 -35 Level Cleveland Center
Fri 07:23:28 AM 43.0500 -78.8500 311° West 250 288 13,900 -107 Descending Toronto Center
Fri 07:24:28 AM 43.0833 -78.9333 299° West 250 288 13,700 -600 Descending Toronto Center
Fri 07:25:28 AM 43.1167 -79.0167 299° West 260 299 12,700 -1,050 Descending Toronto Center
Fri 07:26:28 AM 43.1667 -79.0833 316° Northwest 270 311 11,600 -1,000 Descending Toronto Center
Fri 07:27:28 AM 43.2167 -79.1833 304° West 280 322 10,700 -1,000 Descending Toronto Center
Fri 07:28:28 AM 43.2500 -79.2667 299° West 270 311 9,600 -850 Descending Toronto Center
Fri 07:29:28 AM 43.3000 -79.3333 316° Northwest 270 311 9,000 -300 Descending Toronto Center
Fri 07:30:28 AM 43.3667 -79.3833 331° Northwest 260 299 9,000 -150 Level Toronto Center
Fri 07:31:28 AM 43.4333 -79.4333 331° Northwest 250 288 8,700 -500 Descending Toronto Center
Fri 07:32:28 AM 43.5000 -79.4667 340° North 270 311 8,000 -500 Descending Toronto Center
Fri 07:33:28 AM 43.5667 -79.5167 331° Northwest 260 299 7,700 -600 Descending Toronto Center
Fri 07:34:28 AM 43.6167 -79.4667 36° Northeast 270 311 6,800 -1,100 Descending Toronto Center
Fri 07:35:28 AM 43.6667 -79.4000 44° Northeast 240 276 5,500 -900 Descending Toronto Center
Fri 07:36:28 AM 43.7167 -79.3333 44° Northeast 240 276 5,000 -400 Descending Toronto Center
Fri 07:37:28 AM 43.7667 -79.2667 44° Northeast 230 265 4,700 -500 Descending Toronto Center
Fri 07:38:28 AM 43.8167 -79.2333 26° Northeast 220 253 4,000 -350 Descending Toronto Center
Fri 07:39:28 AM 43.8500 -79.3167 299° West 210 242 4,000  Level Toronto Center
Fri 07:40:28 AM 43.8500 -79.3833 270° West 190 219 4,000  Level Toronto Center
Fri 07:41:28 AM 43.8167 -79.4167 216° Southwest 170 196 4,000 -350 Level Toronto Center
Fri 07:42:28 AM 43.7833 -79.4667 227° Southwest 160 184 3,300 -750 Descending Toronto Center
Fri 07:43:28 AM 43.7500 -79.5167 227° Southwest 160 184 2,500 -800 Descending Toronto Center
Fri 07:44:28 AM 43.7333 -79.5667 245° Southwest 150 173 1,700 -700 Descending Toronto Center
Fri 07:45:28 AM 43.7000 -79.5833 200° South 120 138 1,100 -600 Descending Toronto Center
Fri 07:46:28 AM 43.6833 -79.6167 235° Southwest 110 127 500 -300 Descending Toronto Center
Fri 07:47:28 AM 43.6833 -79.6333 270° West 30 35 500  Level Toronto Center
Fri 07:48:28 AM 43.6833 -79.6167 90° East 20 23 500  Level Toronto Center
Fri 07:52:10 AM 43.6667 -79.5833 125° Southeast 120 138 500  Level Toronto Center

Login

Don't have an account? Register now (free) for customized features, flight alerts, and more!